Lochearnhead, United Kingdom
Current Conditions -  °F | °C
As of 11:50 PM on Saturday 25 Oct 2014 (Local Time) from EGPF Reporting Station
Scattered Clouds Scattered Clouds  
Wind Chill: 11°   Ceiling: Unl
Heat Index: 11°   Visibility: 6mi
Dew Point:   Wind: 23mph
Humidity: 82%   Direction: 230°SW
Pressure: 29.71"   Gusts: 37mph
Location:  56.39°N, 4.29°W
Report Text: EGPF 252250Z AUTO 23020G32KT 9999 FEW035 SCT041 11/08 Q1006
Loading
Personal Weather Stations






























Interactive Weather Map
Tropical Storm Tracking
New forecast layout! Learn more

10-Day Weather Forecast

Advertisements
Track Severe Weather on mobile